createdAt,value
2019-03-23T00:01:19.204Z,99.90
2019-03-23T00:03:47.830Z,99.90
2019-03-23T00:06:16.251Z,99.90
2019-03-23T00:08:44.723Z,99.90
2019-03-23T00:11:13.130Z,99.90
2019-03-23T00:13:41.634Z,99.90
2019-03-23T00:16:10.065Z,99.90
2019-03-23T00:18:38.455Z,99.90
2019-03-23T00:21:06.850Z,99.90
2019-03-23T00:23:35.290Z,99.90
2019-03-23T00:26:03.695Z,99.90
2019-03-23T00:28:32.095Z,99.90
2019-03-23T00:31:00.790Z,99.90
2019-03-23T00:33:29.230Z,99.90
2019-03-23T00:35:57.715Z,99.90
2019-03-23T00:38:26.162Z,99.90
2019-03-23T00:40:54.562Z,99.90
2019-03-23T00:43:23.079Z,99.90
2019-03-23T00:45:51.491Z,99.90
2019-03-23T00:48:19.887Z,99.90
2019-03-23T00:50:48.296Z,99.90
2019-03-23T00:53:17.052Z,99.90
2019-03-23T00:55:45.550Z,99.90
2019-03-23T00:58:13.966Z,99.90
2019-03-23T01:00:42.430Z,99.90
2019-03-23T01:03:10.850Z,99.90
2019-03-23T01:05:39.695Z,99.90
2019-03-23T01:08:08.132Z,99.90
2019-03-23T01:10:36.806Z,99.90
2019-03-23T01:13:05.284Z,99.90
2019-03-23T01:15:33.791Z,99.90
2019-03-23T01:18:02.256Z,99.90
2019-03-23T01:20:30.670Z,99.90
2019-03-23T01:22:59.234Z,99.90
2019-03-23T01:25:27.633Z,99.90
2019-03-23T01:27:56.378Z,99.90
2019-03-23T01:30:24.778Z,99.90
2019-03-23T01:32:53.489Z,99.90
2019-03-23T01:35:21.943Z,99.90
2019-03-23T01:37:50.343Z,99.90
2019-03-23T01:40:19.025Z,99.90
2019-03-23T01:42:47.415Z,99.90
2019-03-23T01:45:16.083Z,99.90
2019-03-23T01:47:44.496Z,99.90
2019-03-23T01:50:13.072Z,99.90
2019-03-23T01:52:41.487Z,99.90
2019-03-23T01:55:10.387Z,99.90
2019-03-23T01:57:38.786Z,99.90
2019-03-23T02:00:28.152Z,99.90
2019-03-23T02:02:56.551Z,99.90
2019-03-23T02:05:25.118Z,99.90
2019-03-23T02:07:53.531Z,99.90
2019-03-23T02:10:21.948Z,99.90
2019-03-23T02:12:50.345Z,99.90
2019-03-23T02:15:18.742Z,99.90
2019-03-23T02:17:47.143Z,99.90
2019-03-23T02:20:15.915Z,99.90
2019-03-23T02:22:44.302Z,99.90
2019-03-23T02:25:13.042Z,99.90
2019-03-23T02:27:41.506Z,99.90
2019-03-23T02:30:11.477Z,99.90
2019-03-23T02:32:39.882Z,99.90
2019-03-23T02:35:09.208Z,99.90
2019-03-23T02:37:37.688Z,99.90
2019-03-23T02:40:07.733Z,99.90
2019-03-23T02:42:36.134Z,99.90
2019-03-23T02:45:09.629Z,99.90
2019-03-23T02:47:38.017Z,99.90
2019-03-23T02:50:07.770Z,99.90
2019-03-23T02:52:36.707Z,99.90
2019-03-23T02:55:08.654Z,99.90
2019-03-23T02:57:37.052Z,99.90
2019-03-23T03:00:11.207Z,99.90
2019-03-23T03:02:39.609Z,99.90
2019-03-23T03:05:09.181Z,99.90
2019-03-23T03:07:42.545Z,99.90
2019-03-23T03:10:10.476Z,99.90
2019-03-23T03:12:38.941Z,99.90
2019-03-23T03:15:08.172Z,99.90
2019-03-23T03:17:36.685Z,99.90
2019-03-23T03:20:07.667Z,99.90
2019-03-23T03:22:36.061Z,99.90
2019-03-23T03:25:06.515Z,99.90
2019-03-23T03:27:34.918Z,99.90
2019-03-23T03:30:03.786Z,99.90
2019-03-23T03:32:32.205Z,99.90
2019-03-23T03:35:00.780Z,99.90
2019-03-23T03:37:29.291Z,99.90
2019-03-23T03:39:57.699Z,99.90
2019-03-23T03:42:26.118Z,99.90
2019-03-23T03:44:54.535Z,99.90
2019-03-23T03:47:22.988Z,99.90
2019-03-23T03:49:51.639Z,99.90
2019-03-23T03:52:20.106Z,99.90
2019-03-23T03:54:48.508Z,99.90
2019-03-23T03:57:16.920Z,99.90
2019-03-23T03:59:45.319Z,99.90
2019-03-23T04:02:14.185Z,99.90
2019-03-23T04:04:42.582Z,99.90
2019-03-23T04:07:10.996Z,99.90
2019-03-23T04:09:40.505Z,99.90
2019-03-23T04:12:09.067Z,99.90
2019-03-23T04:14:37.470Z,99.90
2019-03-23T04:17:06.119Z,99.90
2019-03-23T04:19:34.524Z,99.90
2019-03-23T04:22:03.006Z,99.90
2019-03-23T04:24:31.507Z,99.90
2019-03-23T04:27:01.619Z,99.90
2019-03-23T04:29:30.020Z,99.90
2019-03-23T04:31:58.441Z,99.90
2019-03-23T04:34:26.881Z,99.90
2019-03-23T04:36:55.424Z,99.90
2019-03-23T04:39:24.016Z,99.90
2019-03-23T04:41:52.422Z,99.90
2019-03-23T04:44:20.819Z,99.90
2019-03-23T04:46:49.259Z,99.90
2019-03-23T04:49:17.729Z,99.90
2019-03-23T04:51:46.149Z,99.90
2019-03-23T04:54:14.808Z,99.90
2019-03-23T04:56:43.206Z,99.90
2019-03-23T04:59:11.606Z,99.90
2019-03-23T05:01:40.424Z,99.90
2019-03-23T05:04:09.741Z,99.90
2019-03-23T05:06:38.179Z,99.90
2019-03-23T05:09:08.610Z,99.90
2019-03-23T05:11:37.020Z,99.90
2019-03-23T05:14:05.432Z,99.90
2019-03-23T05:16:33.907Z,99.90
2019-03-23T05:19:02.309Z,99.90
2019-03-23T05:21:30.748Z,99.90
2019-03-23T05:23:59.147Z,99.90
2019-03-23T05:26:27.611Z,99.90
2019-03-23T05:28:56.014Z,99.90
2019-03-23T05:31:24.415Z,99.90
2019-03-23T05:33:53.061Z,99.90
2019-03-23T05:36:21.458Z,99.90
2019-03-23T05:38:50.104Z,99.90
2019-03-23T05:41:18.722Z,99.90
2019-03-23T05:43:47.184Z,99.90
2019-03-23T05:46:15.588Z,99.90
2019-03-23T05:48:44.004Z,99.90
2019-03-23T05:51:12.406Z,99.90
2019-03-23T05:53:41.110Z,99.90
2019-03-23T05:56:09.515Z,99.90
2019-03-23T05:58:37.963Z,99.90
2019-03-23T06:01:06.807Z,99.90
2019-03-23T06:03:35.219Z,99.90
2019-03-23T06:06:03.966Z,99.90
2019-03-23T06:08:32.365Z,99.90
2019-03-23T06:11:00.857Z,99.90
2019-03-23T06:13:29.251Z,99.90
2019-03-23T06:15:57.666Z,99.90
2019-03-23T06:18:26.067Z,99.90
2019-03-23T06:20:54.470Z,99.90
2019-03-23T06:23:22.991Z,99.90
2019-03-23T06:25:51.388Z,99.90
2019-03-23T06:28:19.834Z,99.90
2019-03-23T06:30:48.558Z,99.90
2019-03-23T06:33:16.959Z,99.90
2019-03-23T06:35:45.364Z,99.90
2019-03-23T06:38:16.210Z,99.90
2019-03-23T06:40:44.232Z,99.90
2019-03-23T06:43:12.711Z,99.90
2019-03-23T06:45:41.127Z,99.90
2019-03-23T06:48:09.541Z,99.90
2019-03-23T06:50:37.958Z,99.90
2019-03-23T06:53:06.371Z,99.90
2019-03-23T06:55:34.880Z,99.90
2019-03-23T06:58:03.285Z,99.90
2019-03-23T07:00:31.871Z,99.90
2019-03-23T07:03:00.271Z,99.90
2019-03-23T07:05:28.740Z,99.90
2019-03-23T07:08:16.562Z,99.90
2019-03-23T07:10:44.963Z,99.90
2019-03-23T07:13:13.413Z,99.90
2019-03-23T07:15:41.815Z,99.90
2019-03-23T07:18:10.223Z,99.90
2019-03-23T07:20:38.626Z,99.90
2019-03-23T07:23:07.413Z,99.90
2019-03-23T07:25:35.810Z,99.90
2019-03-23T07:28:04.266Z,99.90
2019-03-23T07:30:32.679Z,99.90
2019-03-23T07:33:01.111Z,99.90
2019-03-23T07:35:29.531Z,99.90
2019-03-23T07:37:57.932Z,99.90
2019-03-23T07:40:26.418Z,99.90
2019-03-23T07:42:54.827Z,99.90
2019-03-23T07:45:23.299Z,99.90
2019-03-23T07:47:51.694Z,99.90
2019-03-23T07:50:20.135Z,99.90
2019-03-23T07:52:48.564Z,99.90
2019-03-23T07:55:17.422Z,99.90
2019-03-23T07:57:45.835Z,99.90
2019-03-23T08:00:20.232Z,99.90
2019-03-23T08:02:48.754Z,99.90
2019-03-23T08:05:17.226Z,99.90
2019-03-23T08:07:45.700Z,99.90
2019-03-23T08:10:33.302Z,99.90
2019-03-23T08:13:01.845Z,99.90
2019-03-23T08:15:30.784Z,99.90
2019-03-23T08:17:59.824Z,99.90
2019-03-23T08:20:28.366Z,99.90
2019-03-23T08:22:56.775Z,99.90
2019-03-23T08:25:25.240Z,99.90
2019-03-23T08:27:53.733Z,99.70
2019-03-23T08:30:22.149Z,99.30
2019-03-23T08:32:50.617Z,98.70
2019-03-23T08:35:19.054Z,98.30
2019-03-23T08:37:47.553Z,98.00
2019-03-23T08:40:16.244Z,97.70
2019-03-23T08:42:44.649Z,97.50
2019-03-23T08:45:13.318Z,97.20
2019-03-23T08:47:41.770Z,97.00
2019-03-23T08:50:10.419Z,96.50
2019-03-23T08:52:38.882Z,96.10
2019-03-23T08:55:07.370Z,95.80
2019-03-23T08:57:35.811Z,95.30
2019-03-23T09:00:06.944Z,95.00
2019-03-23T09:02:35.906Z,94.80
2019-03-23T09:05:05.860Z,94.50
2019-03-23T09:07:34.385Z,94.20
2019-03-23T09:10:03.950Z,93.80
2019-03-23T09:12:32.376Z,93.00
2019-03-23T09:15:00.898Z,92.60
2019-03-23T09:17:29.331Z,92.10
2019-03-23T09:19:57.730Z,91.80
2019-03-23T09:22:26.126Z,91.60
2019-03-23T09:24:57.132Z,91.30
2019-03-23T09:27:24.686Z,91.00
2019-03-23T09:29:53.101Z,90.70
2019-03-23T09:32:21.718Z,90.60
2019-03-23T09:34:50.313Z,88.90
2019-03-23T09:37:18.847Z,87.90
2019-03-23T09:39:47.294Z,87.50
2019-03-23T09:42:15.762Z,86.10
2019-03-23T09:44:44.195Z,85.60
2019-03-23T09:47:12.610Z,84.60
2019-03-23T09:49:41.062Z,83.60
2019-03-23T09:52:09.466Z,83.10
2019-03-23T09:54:38.367Z,82.90
2019-03-23T09:57:06.766Z,81.80
2019-03-23T09:59:35.235Z,81.50
2019-03-23T10:02:03.833Z,81.20
2019-03-23T10:04:32.322Z,79.10
2019-03-23T10:07:00.746Z,78.30
2019-03-23T10:09:29.310Z,76.20
2019-03-23T10:11:59.261Z,76.10
2019-03-23T10:14:27.784Z,74.90
2019-03-23T10:16:56.200Z,74.40
2019-03-23T10:19:24.970Z,72.60
2019-03-23T10:21:53.367Z,71.90
2019-03-23T10:24:21.786Z,71.00
2019-03-23T10:26:52.118Z,70.40
2019-03-23T10:29:20.345Z,70.00
2019-03-23T10:31:48.758Z,68.60
2019-03-23T10:34:17.161Z,67.80
2019-03-23T10:36:45.582Z,67.90
2019-03-23T10:39:14.068Z,68.60
2019-03-23T10:41:42.481Z,68.80
2019-03-23T10:44:11.042Z,69.30
2019-03-23T10:46:39.530Z,69.10
2019-03-23T10:49:08.191Z,69.20
2019-03-23T10:51:36.588Z,69.50
2019-03-23T10:54:05.090Z,69.10
2019-03-23T10:56:33.499Z,69.30
2019-03-23T10:59:01.909Z,69.30
2019-03-23T11:01:30.437Z,68.90
2019-03-23T11:03:58.807Z,69.30
2019-03-23T11:06:27.210Z,69.40
2019-03-23T11:08:55.621Z,69.50
2019-03-23T11:11:24.027Z,68.50
2019-03-23T11:13:52.506Z,68.40
2019-03-23T11:16:21.010Z,68.00
2019-03-23T11:18:49.452Z,68.00
2019-03-23T11:21:17.850Z,68.20
2019-03-23T11:23:46.262Z,68.40
2019-03-23T11:26:14.680Z,67.50
2019-03-23T11:28:43.146Z,68.20
2019-03-23T11:31:11.662Z,68.30
2019-03-23T11:33:40.130Z,68.10
2019-03-23T11:36:08.523Z,66.90
2019-03-23T11:38:37.011Z,66.90
2019-03-23T11:41:05.415Z,66.20
2019-03-23T11:43:34.864Z,65.20
2019-03-23T11:46:03.227Z,65.20
2019-03-23T11:48:31.640Z,64.50
2019-03-23T11:51:00.052Z,62.80
2019-03-23T11:53:28.445Z,61.70
2019-03-23T11:55:56.908Z,60.30
2019-03-23T11:58:26.231Z,59.00
2019-03-23T12:00:54.665Z,58.50
2019-03-23T12:03:23.235Z,57.50
2019-03-23T12:05:51.651Z,56.60
2019-03-23T12:08:20.084Z,55.40
2019-03-23T12:10:48.492Z,55.00
2019-03-23T12:13:17.012Z,55.10
2019-03-23T12:15:45.558Z,54.80
2019-03-23T12:18:13.985Z,54.40
2019-03-23T12:20:42.423Z,54.80
2019-03-23T12:23:10.929Z,53.60
2019-03-23T12:25:39.431Z,53.30
2019-03-23T12:28:07.823Z,52.90
2019-03-23T12:30:36.243Z,52.60
2019-03-23T12:33:04.745Z,52.00
2019-03-23T12:35:33.466Z,51.80
2019-03-23T12:38:01.872Z,51.70
2019-03-23T12:40:30.281Z,51.70
2019-03-23T12:42:59.220Z,51.10
2019-03-23T12:45:27.624Z,50.40
2019-03-23T12:47:56.792Z,50.00
2019-03-23T12:50:25.228Z,49.80
2019-03-23T12:52:53.606Z,49.20
2019-03-23T12:55:22.063Z,49.00
2019-03-23T12:57:50.871Z,48.90
2019-03-23T13:00:19.716Z,48.60
2019-03-23T13:02:48.120Z,48.60
2019-03-23T13:05:16.534Z,48.60
2019-03-23T13:07:45.022Z,48.60
2019-03-23T13:10:14.381Z,48.70
2019-03-23T13:12:42.780Z,49.00
2019-03-23T13:15:13.702Z,49.40
2019-03-23T13:17:42.199Z,48.60
2019-03-23T13:20:11.518Z,48.50
2019-03-23T13:22:40.066Z,48.60
2019-03-23T13:25:09.228Z,48.50
2019-03-23T13:27:57.057Z,48.30
2019-03-23T13:30:25.458Z,48.30
2019-03-23T13:32:53.983Z,48.30
2019-03-23T13:35:22.451Z,48.40
2019-03-23T13:37:50.878Z,48.30
2019-03-23T13:40:19.279Z,48.00
2019-03-23T13:42:47.753Z,48.00
2019-03-23T13:45:16.739Z,47.90
2019-03-23T13:47:45.182Z,47.60
2019-03-23T13:50:15.680Z,47.40
2019-03-23T13:52:44.163Z,47.40
2019-03-23T13:55:46.328Z,47.10
2019-03-23T13:58:15.404Z,47.20
2019-03-23T14:00:43.842Z,47.70
2019-03-23T14:03:12.499Z,47.20
2019-03-23T14:05:40.988Z,47.10
2019-03-23T14:08:09.411Z,47.20
2019-03-23T14:10:37.895Z,47.50
2019-03-23T14:13:06.409Z,48.00
2019-03-23T14:15:34.847Z,47.60
2019-03-23T14:18:03.248Z,47.90
2019-03-23T14:20:31.854Z,48.00
2019-03-23T14:23:02.916Z,47.20
2019-03-23T14:25:30.398Z,46.90
2019-03-23T14:27:58.798Z,46.80
2019-03-23T14:30:27.219Z,46.80
2019-03-23T14:32:55.627Z,46.80
2019-03-23T14:35:24.044Z,46.80
2019-03-23T14:37:52.746Z,46.50
2019-03-23T14:40:41.431Z,46.60
2019-03-23T14:43:09.947Z,46.40
2019-03-23T14:45:38.370Z,46.50
2019-03-23T14:48:06.781Z,46.40
2019-03-23T14:50:35.281Z,45.90
2019-03-23T14:53:03.693Z,45.90
2019-03-23T14:55:32.123Z,45.80
2019-03-23T14:58:01.490Z,45.70
2019-03-23T15:00:31.544Z,45.70
2019-03-23T15:02:59.959Z,45.60
2019-03-23T15:05:29.669Z,45.30
2019-03-23T15:07:58.068Z,45.40
2019-03-23T15:10:26.470Z,45.50
2019-03-23T15:12:54.891Z,45.40
2019-03-23T15:15:23.313Z,45.30
2019-03-23T15:17:51.866Z,45.30
2019-03-23T15:20:20.378Z,45.10
2019-03-23T15:22:48.999Z,45.00
2019-03-23T15:25:17.417Z,44.80
2019-03-23T15:27:46.106Z,44.70
2019-03-23T15:30:14.661Z,44.90
2019-03-23T15:32:43.060Z,45.10
2019-03-23T15:35:30.832Z,45.20
2019-03-23T15:37:59.225Z,45.00
2019-03-23T15:40:27.635Z,44.70
2019-03-23T15:42:56.075Z,44.30
2019-03-23T15:45:25.047Z,44.10
2019-03-23T15:47:53.450Z,43.70
2019-03-23T15:50:21.893Z,43.30
2019-03-23T15:52:50.290Z,42.80
2019-03-23T15:55:18.710Z,42.40
2019-03-23T15:57:47.144Z,42.60
2019-03-23T16:00:15.638Z,42.60
2019-03-23T16:02:44.072Z,42.60
2019-03-23T16:05:12.581Z,42.80
2019-03-23T16:07:41.498Z,42.60
2019-03-23T16:10:10.242Z,42.50
2019-03-23T16:12:38.657Z,43.10
2019-03-23T16:15:09.905Z,42.60
2019-03-23T16:17:39.625Z,42.80
2019-03-23T16:20:12.200Z,42.90
2019-03-23T16:22:41.047Z,43.00
2019-03-23T16:25:10.161Z,43.30
2019-03-23T16:27:38.575Z,43.50
2019-03-23T16:30:09.391Z,43.60
2019-03-23T16:32:37.801Z,43.80
2019-03-23T16:35:07.144Z,44.10
2019-03-23T16:37:35.649Z,44.30
2019-03-23T16:40:06.642Z,44.80
2019-03-23T16:42:44.545Z,45.40
2019-03-23T16:45:08.621Z,45.80
2019-03-23T16:47:37.247Z,46.30
2019-03-23T16:50:08.287Z,46.70
2019-03-23T16:52:38.119Z,47.10
2019-03-23T16:55:10.169Z,47.50
2019-03-23T16:57:38.567Z,47.80
2019-03-23T17:00:09.367Z,48.20
2019-03-23T17:02:37.854Z,48.50
2019-03-23T17:05:06.813Z,48.80
2019-03-23T17:07:36.473Z,49.00
2019-03-23T17:10:06.418Z,49.30
2019-03-23T17:12:34.929Z,49.60
2019-03-23T17:15:05.389Z,50.10
2019-03-23T17:17:33.808Z,50.40
2019-03-23T17:20:02.250Z,50.80
2019-03-23T17:22:30.683Z,51.10
2019-03-23T17:24:59.250Z,51.40
2019-03-23T17:27:28.130Z,51.80
2019-03-23T17:29:56.550Z,52.30
2019-03-23T17:32:25.028Z,52.70
2019-03-23T17:34:53.534Z,53.20
2019-03-23T17:37:21.938Z,53.70
2019-03-23T17:39:50.361Z,54.10
2019-03-23T17:42:18.766Z,54.50
2019-03-23T17:44:47.200Z,55.00
2019-03-23T17:47:15.711Z,55.50
2019-03-23T17:49:44.111Z,56.10
2019-03-23T17:52:12.522Z,57.40
2019-03-23T17:54:40.938Z,57.70
2019-03-23T17:57:09.364Z,58.60
2019-03-23T17:59:37.745Z,59.60
2019-03-23T18:02:06.518Z,60.60
2019-03-23T18:04:34.917Z,61.70
2019-03-23T18:07:03.317Z,63.00
2019-03-23T18:09:31.818Z,64.20
2019-03-23T18:12:00.218Z,65.40
2019-03-23T18:14:28.625Z,66.50
2019-03-23T18:16:57.065Z,67.60
2019-03-23T18:19:25.486Z,69.00
2019-03-23T18:21:53.905Z,70.30
2019-03-23T18:24:22.299Z,71.40
2019-03-23T18:26:50.726Z,72.50
2019-03-23T18:29:19.117Z,73.50
2019-03-23T18:31:47.912Z,74.70
2019-03-23T18:34:16.322Z,76.00
2019-03-23T18:36:45.000Z,77.40
2019-03-23T18:39:14.938Z,78.70
2019-03-23T18:41:43.350Z,79.80
2019-03-23T18:44:16.136Z,80.90
2019-03-23T18:46:42.122Z,82.50
2019-03-23T18:49:10.545Z,84.00
2019-03-23T18:51:38.963Z,85.00
2019-03-23T18:54:07.401Z,86.10
2019-03-23T18:56:35.802Z,87.10
2019-03-23T18:59:04.194Z,88.30
2019-03-23T19:01:39.131Z,89.10
2019-03-23T19:04:07.536Z,89.90
2019-03-23T19:06:35.958Z,90.30
2019-03-23T19:09:06.766Z,90.90
2019-03-23T19:11:35.202Z,91.30
2019-03-23T19:14:03.768Z,91.60
2019-03-23T19:16:32.196Z,92.40
2019-03-23T19:19:00.660Z,92.30
2019-03-23T19:21:29.054Z,93.00
2019-03-23T19:23:57.478Z,93.10
2019-03-23T19:26:25.887Z,93.40
2019-03-23T19:28:54.298Z,93.60
2019-03-23T19:31:23.670Z,93.80
2019-03-23T19:33:52.235Z,94.00
2019-03-23T19:36:20.640Z,94.30
2019-03-23T19:38:49.095Z,94.50
2019-03-23T19:41:17.592Z,94.70
2019-03-23T19:46:16.052Z,94.90
2019-03-23T19:48:44.485Z,95.40
2019-03-23T19:51:12.894Z,95.70
2019-03-23T19:53:41.292Z,95.80
2019-03-23T19:56:09.986Z,95.90
2019-03-23T19:58:38.387Z,96.00
2019-03-23T20:01:06.791Z,96.10
2019-03-23T20:03:35.204Z,96.30
2019-03-23T20:06:03.631Z,96.40
2019-03-23T20:08:32.098Z,96.60
2019-03-23T20:11:00.481Z,96.70
2019-03-23T20:13:29.378Z,96.80
2019-03-23T20:15:57.807Z,96.90
2019-03-23T20:18:26.286Z,97.00
2019-03-23T20:21:08.077Z,97.00
2019-03-23T20:23:36.708Z,97.20
2019-03-23T20:26:05.140Z,97.40
2019-03-23T20:28:33.603Z,97.60
2019-03-23T20:31:02.067Z,97.80
2019-03-23T20:33:30.450Z,98.00
2019-03-23T20:35:59.779Z,98.20
2019-03-23T20:38:35.898Z,98.30
2019-03-23T20:41:04.328Z,98.70
2019-03-23T20:43:32.757Z,98.50
2019-03-23T20:46:01.625Z,98.60
2019-03-23T20:48:30.144Z,98.80
2019-03-23T20:50:58.531Z,98.90
2019-03-23T20:53:27.179Z,99.00
2019-03-23T20:55:55.577Z,99.20
2019-03-23T20:58:23.994Z,99.30
2019-03-23T21:00:52.415Z,99.50
2019-03-23T21:03:20.822Z,99.60
2019-03-23T21:05:49.244Z,99.80
2019-03-23T21:08:17.937Z,99.90
2019-03-23T21:10:46.377Z,99.90
2019-03-23T21:13:15.020Z,99.90
2019-03-23T21:15:43.483Z,99.90
2019-03-23T21:18:11.887Z,99.90
2019-03-23T21:20:40.296Z,99.90
2019-03-23T21:23:08.959Z,99.90
2019-03-23T21:25:37.422Z,99.90
2019-03-23T21:28:05.810Z,99.90
2019-03-23T21:30:34.220Z,99.90
2019-03-23T21:33:02.666Z,99.90
2019-03-23T21:35:31.059Z,99.90
2019-03-23T21:37:59.475Z,99.90
2019-03-23T21:40:27.883Z,99.90
2019-03-23T21:42:56.286Z,99.90
2019-03-23T21:45:24.854Z,99.90
2019-03-23T21:47:53.267Z,99.90
2019-03-23T21:50:21.673Z,99.90
2019-03-23T21:52:50.173Z,99.90
2019-03-23T21:55:18.552Z,99.90
2019-03-23T21:57:46.992Z,99.90
2019-03-23T22:00:18.465Z,99.90
2019-03-23T22:02:55.690Z,99.90
2019-03-23T22:05:24.087Z,99.90
2019-03-23T22:07:52.483Z,99.90
2019-03-23T22:10:20.931Z,99.90
2019-03-23T22:12:49.391Z,99.90
2019-03-23T22:15:18.122Z,99.90
2019-03-23T22:17:46.521Z,99.90
2019-03-23T22:20:14.918Z,99.90
2019-03-23T22:22:43.314Z,99.90
2019-03-23T22:25:11.823Z,99.90
2019-03-23T22:27:40.213Z,99.90
2019-03-23T22:30:11.160Z,99.90
2019-03-23T22:32:39.554Z,99.90
2019-03-23T22:35:08.586Z,99.90
2019-03-23T22:37:37.045Z,99.90
2019-03-23T22:40:09.553Z,99.90
2019-03-23T22:42:37.959Z,99.90
2019-03-23T22:45:08.173Z,99.90
2019-03-23T22:47:36.849Z,99.90
2019-03-23T22:50:09.122Z,99.90
2019-03-23T22:52:37.599Z,99.90
2019-03-23T22:55:07.043Z,99.90
2019-03-23T22:57:35.443Z,99.90
2019-03-23T23:00:06.464Z,99.90
2019-03-23T23:02:35.156Z,99.90
2019-03-23T23:05:08.774Z,99.90
2019-03-23T23:07:37.170Z,99.90
2019-03-23T23:10:07.630Z,99.90
2019-03-23T23:12:36.058Z,99.90
2019-03-23T23:15:06.489Z,99.90
2019-03-23T23:17:34.897Z,99.90
2019-03-23T23:20:05.614Z,99.90
2019-03-23T23:22:34.009Z,99.90
2019-03-23T23:25:02.891Z,99.90
2019-03-23T23:27:31.386Z,99.90
2019-03-23T23:29:59.814Z,99.90
2019-03-23T23:32:28.206Z,99.90
2019-03-23T23:34:56.597Z,99.90
2019-03-23T23:37:25.010Z,99.90
2019-03-23T23:39:53.402Z,99.90
2019-03-23T23:42:21.810Z,99.90
2019-03-23T23:44:50.202Z,99.90
2019-03-23T23:47:18.602Z,99.90
2019-03-23T23:49:47.019Z,99.90
2019-03-23T23:52:15.414Z,99.90
2019-03-23T23:54:43.801Z,99.90
2019-03-23T23:57:12.237Z,99.90
2019-03-23T23:59:40.636Z,99.90
